sensor_id;sensor_type;location;lat;lon;timestamp;P1;durP1;ratioP1;P2;durP2;ratioP2
29314;SDS011;16320;53.954;9.506;2022-09-16T00:03:02;11.45;;;1.05;;
29314;SDS011;16320;53.954;9.506;2022-09-16T00:06:15;11.68;;;1.48;;
29314;SDS011;16320;53.954;9.506;2022-09-16T00:09:31;6.05;;;0.88;;
29314;SDS011;16320;53.954;9.506;2022-09-16T00:12:36;13.18;;;1.38;;
29314;SDS011;16320;53.954;9.506;2022-09-16T00:15:45;13.15;;;1.33;;
29314;SDS011;16320;53.954;9.506;2022-09-16T00:18:58;10.18;;;1.15;;
29314;SDS011;16320;53.954;9.506;2022-09-16T00:22:03;8.35;;;1.27;;
29314;SDS011;16320;53.954;9.506;2022-09-16T00:25:08;7.88;;;1.30;;
29314;SDS011;16320;53.954;9.506;2022-09-16T00:28:13;9.65;;;1.52;;
29314;SDS011;16320;53.954;9.506;2022-09-16T00:31:17;22.60;;;1.42;;
29314;SDS011;16320;53.954;9.506;2022-09-16T00:34:22;20.40;;;1.77;;
29314;SDS011;16320;53.954;9.506;2022-09-16T00:37:26;16.73;;;1.35;;
29314;SDS011;16320;53.954;9.506;2022-09-16T00:40:31;15.65;;;2.03;;
29314;SDS011;16320;53.954;9.506;2022-09-16T00:43:49;10.65;;;1.33;;
29314;SDS011;16320;53.954;9.506;2022-09-16T00:47:02;11.18;;;1.15;;
29314;SDS011;16320;53.954;9.506;2022-09-16T00:50:09;18.80;;;1.17;;
29314;SDS011;16320;53.954;9.506;2022-09-16T00:53:22;21.37;;;1.30;;
29314;SDS011;16320;53.954;9.506;2022-09-16T00:56:33;15.98;;;1.75;;
29314;SDS011;16320;53.954;9.506;2022-09-16T00:59:43;11.73;;;1.20;;
29314;SDS011;16320;53.954;9.506;2022-09-16T01:02:54;14.77;;;1.60;;
29314;SDS011;16320;53.954;9.506;2022-09-16T01:05:59;11.13;;;1.40;;
29314;SDS011;16320;53.954;9.506;2022-09-16T01:09:05;12.65;;;1.30;;
29314;SDS011;16320;53.954;9.506;2022-09-16T01:12:09;8.75;;;1.00;;
29314;SDS011;16320;53.954;9.506;2022-09-16T01:15:14;20.10;;;1.27;;
29314;SDS011;16320;53.954;9.506;2022-09-16T01:18:30;14.27;;;1.17;;
29314;SDS011;16320;53.954;9.506;2022-09-16T01:40:52;12.95;;;1.60;;
29314;SDS011;16320;53.954;9.506;2022-09-16T01:44:14;12.68;;;1.48;;
29314;SDS011;16320;53.954;9.506;2022-09-16T01:47:36;17.65;;;2.95;;
29314;SDS011;16320;53.954;9.506;2022-09-16T01:50:59;7.60;;;1.48;;
29314;SDS011;16320;53.954;9.506;2022-09-16T02:01:24;14.50;;;1.40;;
29314;SDS011;16320;53.954;9.506;2022-09-16T02:04:45;10.23;;;1.50;;
29314;SDS011;16320;53.954;9.506;2022-09-16T02:08:41;12.40;;;1.60;;
29314;SDS011;16320;53.954;9.506;2022-09-16T02:11:42;16.35;;;1.83;;
29314;SDS011;16320;53.954;9.506;2022-09-16T02:14:50;13.52;;;2.28;;
29314;SDS011;16320;53.954;9.506;2022-09-16T02:18:08;10.43;;;1.60;;
29314;SDS011;16320;53.954;9.506;2022-09-16T02:21:17;16.98;;;2.83;;
29314;SDS011;16320;53.954;9.506;2022-09-16T02:24:24;14.50;;;2.80;;
29314;SDS011;16320;53.954;9.506;2022-09-16T02:27:32;21.63;;;1.95;;
29314;SDS011;16320;53.954;9.506;2022-09-16T02:30:40;21.65;;;2.35;;
29314;SDS011;16320;53.954;9.506;2022-09-16T02:33:53;21.38;;;3.70;;
29314;SDS011;16320;53.954;9.506;2022-09-16T02:37:06;14.30;;;2.50;;
29314;SDS011;16320;53.954;9.506;2022-09-16T02:40:19;18.67;;;1.88;;
29314;SDS011;16320;53.954;9.506;2022-09-16T02:43:37;11.18;;;1.95;;
29314;SDS011;16320;53.954;9.506;2022-09-16T02:47:03;23.23;;;2.00;;
29314;SDS011;16320;53.954;9.506;2022-09-16T02:50:16;25.27;;;2.70;;
29314;SDS011;16320;53.954;9.506;2022-09-16T02:53:52;22.85;;;3.42;;
29314;SDS011;16320;53.954;9.506;2022-09-16T02:57:05;15.07;;;1.90;;
29314;SDS011;16320;53.954;9.506;2022-09-16T03:00:11;16.88;;;1.85;;
29314;SDS011;16320;53.954;9.506;2022-09-16T03:03:16;26.17;;;4.55;;
29314;SDS011;16320;53.954;9.506;2022-09-16T03:06:25;19.65;;;2.50;;
29314;SDS011;16320;53.954;9.506;2022-09-16T03:09:32;18.10;;;2.05;;
29314;SDS011;16320;53.954;9.506;2022-09-16T03:12:49;24.40;;;3.33;;
29314;SDS011;16320;53.954;9.506;2022-09-16T03:16:11;27.42;;;3.60;;
29314;SDS011;16320;53.954;9.506;2022-09-16T03:27:01;21.25;;;2.72;;
29314;SDS011;16320;53.954;9.506;2022-09-16T03:30:15;24.15;;;1.80;;
29314;SDS011;16320;53.954;9.506;2022-09-16T03:33:23;22.90;;;2.40;;
29314;SDS011;16320;53.954;9.506;2022-09-16T03:36:55;12.65;;;1.60;;
29314;SDS011;16320;53.954;9.506;2022-09-16T03:40:09;17.55;;;1.50;;
29314;SDS011;16320;53.954;9.506;2022-09-16T03:43:20;17.88;;;2.05;;
29314;SDS011;16320;53.954;9.506;2022-09-16T03:46:26;31.85;;;3.17;;
29314;SDS011;16320;53.954;9.506;2022-09-16T03:49:32;17.20;;;3.22;;
29314;SDS011;16320;53.954;9.506;2022-09-16T03:52:36;27.15;;;2.58;;
29314;SDS011;16320;53.954;9.506;2022-09-16T03:55:42;17.75;;;2.88;;
29314;SDS011;16320;53.954;9.506;2022-09-16T03:58:46;25.83;;;2.47;;
29314;SDS011;16320;53.954;9.506;2022-09-16T04:01:51;25.17;;;2.60;;
29314;SDS011;16320;53.954;9.506;2022-09-16T04:04:56;30.58;;;2.72;;
29314;SDS011;16320;53.954;9.506;2022-09-16T04:08:00;22.02;;;2.40;;
29314;SDS011;16320;53.954;9.506;2022-09-16T04:11:05;22.38;;;2.40;;
29314;SDS011;16320;53.954;9.506;2022-09-16T04:14:10;17.88;;;1.83;;
29314;SDS011;16320;53.954;9.506;2022-09-16T04:17:15;25.80;;;2.80;;
29314;SDS011;16320;53.954;9.506;2022-09-16T04:20:19;24.67;;;2.17;;
29314;SDS011;16320;53.954;9.506;2022-09-16T04:23:24;28.90;;;3.08;;
29314;SDS011;16320;53.954;9.506;2022-09-16T04:26:29;16.52;;;1.83;;
29314;SDS011;16320;53.954;9.506;2022-09-16T04:29:33;18.60;;;2.08;;
29314;SDS011;16320;53.954;9.506;2022-09-16T04:32:38;21.25;;;2.55;;
29314;SDS011;16320;53.954;9.506;2022-09-16T04:35:42;19.85;;;2.85;;
29314;SDS011;16320;53.954;9.506;2022-09-16T04:38:47;20.17;;;3.28;;
29314;SDS011;16320;53.954;9.506;2022-09-16T04:41:52;18.45;;;2.17;;
29314;SDS011;16320;53.954;9.506;2022-09-16T04:44:57;23.35;;;3.50;;
29314;SDS011;16320;53.954;9.506;2022-09-16T04:51:06;27.35;;;2.80;;
29314;SDS011;16320;53.954;9.506;2022-09-16T04:54:14;19.63;;;2.13;;
29314;SDS011;16320;53.954;9.506;2022-09-16T04:57:18;26.92;;;2.60;;
29314;SDS011;16320;53.954;9.506;2022-09-16T05:00:23;15.45;;;1.80;;
29314;SDS011;16320;53.954;9.506;2022-09-16T05:03:28;15.25;;;1.95;;
29314;SDS011;16320;53.954;9.506;2022-09-16T05:06:34;26.75;;;2.30;;
29314;SDS011;16320;53.954;9.506;2022-09-16T05:09:42;23.02;;;2.42;;
29314;SDS011;16320;53.954;9.506;2022-09-16T05:12:53;17.35;;;2.05;;
29314;SDS011;16320;53.954;9.506;2022-09-16T05:16:05;18.90;;;2.80;;
29314;SDS011;16320;53.954;9.506;2022-09-16T05:19:12;34.03;;;2.35;;
29314;SDS011;16320;53.954;9.506;2022-09-16T05:22:17;19.55;;;1.98;;
29314;SDS011;16320;53.954;9.506;2022-09-16T05:25:21;34.85;;;4.75;;
29314;SDS011;16320;53.954;9.506;2022-09-16T05:28:26;27.48;;;2.15;;
29314;SDS011;16320;53.954;9.506;2022-09-16T05:31:32;17.10;;;2.08;;
29314;SDS011;16320;53.954;9.506;2022-09-16T05:34:41;20.30;;;2.35;;
29314;SDS011;16320;53.954;9.506;2022-09-16T05:37:45;23.35;;;2.15;;
29314;SDS011;16320;53.954;9.506;2022-09-16T05:40:56;25.77;;;2.30;;
29314;SDS011;16320;53.954;9.506;2022-09-16T05:44:02;21.35;;;4.35;;
29314;SDS011;16320;53.954;9.506;2022-09-16T05:47:09;21.20;;;2.55;;
29314;SDS011;16320;53.954;9.506;2022-09-16T05:50:13;27.20;;;2.65;;
29314;SDS011;16320;53.954;9.506;2022-09-16T05:53:18;14.32;;;2.20;;
29314;SDS011;16320;53.954;9.506;2022-09-16T05:56:24;26.05;;;3.20;;
29314;SDS011;16320;53.954;9.506;2022-09-16T05:59:32;21.33;;;4.47;;
29314;SDS011;16320;53.954;9.506;2022-09-16T06:02:36;22.35;;;2.90;;
29314;SDS011;16320;53.954;9.506;2022-09-16T06:05:41;26.85;;;2.53;;
29314;SDS011;16320;53.954;9.506;2022-09-16T06:08:48;25.00;;;2.80;;
29314;SDS011;16320;53.954;9.506;2022-09-16T06:11:54;20.50;;;2.92;;
29314;SDS011;16320;53.954;9.506;2022-09-16T06:15:05;20.25;;;2.33;;
29314;SDS011;16320;53.954;9.506;2022-09-16T06:18:11;17.63;;;2.22;;
29314;SDS011;16320;53.954;9.506;2022-09-16T06:21:18;27.13;;;3.25;;
29314;SDS011;16320;53.954;9.506;2022-09-16T06:24:23;49.05;;;5.57;;
29314;SDS011;16320;53.954;9.506;2022-09-16T06:27:29;30.65;;;2.38;;
29314;SDS011;16320;53.954;9.506;2022-09-16T06:30:34;23.67;;;3.22;;
29314;SDS011;16320;53.954;9.506;2022-09-16T06:33:39;25.50;;;2.38;;
29314;SDS011;16320;53.954;9.506;2022-09-16T06:36:44;34.13;;;3.17;;
29314;SDS011;16320;53.954;9.506;2022-09-16T06:39:49;24.25;;;2.22;;
29314;SDS011;16320;53.954;9.506;2022-09-16T06:42:54;18.85;;;2.40;;
29314;SDS011;16320;53.954;9.506;2022-09-16T06:46:03;18.65;;;2.40;;
29314;SDS011;16320;53.954;9.506;2022-09-16T06:49:16;16.13;;;1.92;;
29314;SDS011;16320;53.954;9.506;2022-09-16T06:52:21;13.77;;;2.40;;
29314;SDS011;16320;53.954;9.506;2022-09-16T06:55:25;19.02;;;4.28;;
29314;SDS011;16320;53.954;9.506;2022-09-16T06:58:33;24.20;;;2.15;;
29314;SDS011;16320;53.954;9.506;2022-09-16T07:01:38;10.80;;;1.75;;
29314;SDS011;16320;53.954;9.506;2022-09-16T07:04:44;20.92;;;3.20;;
29314;SDS011;16320;53.954;9.506;2022-09-16T07:07:49;17.80;;;1.70;;
29314;SDS011;16320;53.954;9.506;2022-09-16T07:11:07;10.65;;;2.22;;
29314;SDS011;16320;53.954;9.506;2022-09-16T07:14:17;13.18;;;2.08;;
29314;SDS011;16320;53.954;9.506;2022-09-16T07:17:21;10.15;;;1.63;;
29314;SDS011;16320;53.954;9.506;2022-09-16T07:20:30;16.77;;;1.65;;
29314;SDS011;16320;53.954;9.506;2022-09-16T07:23:35;11.13;;;1.95;;
29314;SDS011;16320;53.954;9.506;2022-09-16T07:26:40;11.55;;;1.55;;
29314;SDS011;16320;53.954;9.506;2022-09-16T07:29:46;13.30;;;1.95;;
29314;SDS011;16320;53.954;9.506;2022-09-16T07:32:52;8.30;;;2.25;;
29314;SDS011;16320;53.954;9.506;2022-09-16T07:35:57;14.55;;;1.80;;
29314;SDS011;16320;53.954;9.506;2022-09-16T07:39:05;20.75;;;2.17;;
29314;SDS011;16320;53.954;9.506;2022-09-16T07:42:10;11.40;;;1.90;;
29314;SDS011;16320;53.954;9.506;2022-09-16T07:45:14;24.20;;;2.30;;
29314;SDS011;16320;53.954;9.506;2022-09-16T07:48:19;15.48;;;2.03;;
29314;SDS011;16320;53.954;9.506;2022-09-16T07:51:24;9.32;;;1.55;;
29314;SDS011;16320;53.954;9.506;2022-09-16T07:54:31;20.58;;;2.03;;
29314;SDS011;16320;53.954;9.506;2022-09-16T07:57:35;12.68;;;1.70;;
29314;SDS011;16320;53.954;9.506;2022-09-16T08:00:41;22.40;;;2.47;;
29314;SDS011;16320;53.954;9.506;2022-09-16T08:03:46;22.73;;;2.30;;
29314;SDS011;16320;53.954;9.506;2022-09-16T08:06:51;17.50;;;2.08;;
29314;SDS011;16320;53.954;9.506;2022-09-16T08:09:56;15.20;;;1.67;;
29314;SDS011;16320;53.954;9.506;2022-09-16T08:13:00;19.15;;;1.75;;
29314;SDS011;16320;53.954;9.506;2022-09-16T08:16:20;16.23;;;1.73;;
29314;SDS011;16320;53.954;9.506;2022-09-16T08:19:25;18.88;;;1.90;;
29314;SDS011;16320;53.954;9.506;2022-09-16T08:25:34;15.98;;;2.35;;
29314;SDS011;16320;53.954;9.506;2022-09-16T08:28:39;11.20;;;1.10;;
29314;SDS011;16320;53.954;9.506;2022-09-16T08:32:06;9.85;;;1.52;;
29314;SDS011;16320;53.954;9.506;2022-09-16T08:35:11;17.30;;;3.05;;
29314;SDS011;16320;53.954;9.506;2022-09-16T08:38:17;14.02;;;1.45;;
29314;SDS011;16320;53.954;9.506;2022-09-16T08:48:27;6.82;;;1.15;;
29314;SDS011;16320;53.954;9.506;2022-09-16T08:51:45;8.30;;;1.42;;
29314;SDS011;16320;53.954;9.506;2022-09-16T08:54:51;11.82;;;1.40;;
29314;SDS011;16320;53.954;9.506;2022-09-16T09:01:13;9.85;;;1.38;;
29314;SDS011;16320;53.954;9.506;2022-09-16T09:04:29;10.20;;;1.15;;
29314;SDS011;16320;53.954;9.506;2022-09-16T09:11:09;8.20;;;1.48;;
29314;SDS011;16320;53.954;9.506;2022-09-16T09:39:17;10.70;;;1.77;;
29314;SDS011;16320;53.954;9.506;2022-09-16T09:46:19;17.00;;;1.88;;
29314;SDS011;16320;53.954;9.506;2022-09-16T09:49:52;15.48;;;1.88;;
29314;SDS011;16320;53.954;9.506;2022-09-16T09:56:16;18.73;;;1.80;;
29314;SDS011;16320;53.954;9.506;2022-09-16T09:59:42;15.13;;;1.58;;
29314;SDS011;16320;53.954;9.506;2022-09-16T10:06:32;19.45;;;2.20;;
29314;SDS011;16320;53.954;9.506;2022-09-16T10:09:43;18.15;;;2.97;;
29314;SDS011;16320;53.954;9.506;2022-09-16T10:13:05;11.73;;;1.98;;
29314;SDS011;16320;53.954;9.506;2022-09-16T10:16:16;23.30;;;2.58;;
29314;SDS011;16320;53.954;9.506;2022-09-16T10:19:24;16.27;;;2.28;;
29314;SDS011;16320;53.954;9.506;2022-09-16T10:22:31;16.10;;;2.55;;
29314;SDS011;16320;53.954;9.506;2022-09-16T10:25:38;14.25;;;3.65;;
29314;SDS011;16320;53.954;9.506;2022-09-16T10:28:53;9.88;;;1.73;;
29314;SDS011;16320;53.954;9.506;2022-09-16T10:32:04;19.80;;;2.70;;
29314;SDS011;16320;53.954;9.506;2022-09-16T10:35:19;23.83;;;2.47;;
29314;SDS011;16320;53.954;9.506;2022-09-16T10:38:38;16.83;;;2.20;;
29314;SDS011;16320;53.954;9.506;2022-09-16T10:41:47;14.80;;;1.85;;
29314;SDS011;16320;53.954;9.506;2022-09-16T10:45:16;9.55;;;1.63;;
29314;SDS011;16320;53.954;9.506;2022-09-16T10:48:26;16.50;;;1.95;;
29314;SDS011;16320;53.954;9.506;2022-09-16T10:51:33;7.75;;;1.17;;
29314;SDS011;16320;53.954;9.506;2022-09-16T10:54:37;13.65;;;2.05;;
29314;SDS011;16320;53.954;9.506;2022-09-16T10:57:45;18.67;;;1.77;;
29314;SDS011;16320;53.954;9.506;2022-09-16T11:01:07;9.98;;;1.85;;
29314;SDS011;16320;53.954;9.506;2022-09-16T11:25:37;6.20;;;0.82;;
29314;SDS011;16320;53.954;9.506;2022-09-16T11:33:27;6.30;;;1.13;;
29314;SDS011;16320;53.954;9.506;2022-09-16T11:54:32;16.25;;;2.85;;
29314;SDS011;16320;53.954;9.506;2022-09-16T11:58:11;13.95;;;1.83;;
29314;SDS011;16320;53.954;9.506;2022-09-16T12:05:47;22.92;;;2.30;;
29314;SDS011;16320;53.954;9.506;2022-09-16T12:09:08;32.20;;;2.65;;
29314;SDS011;16320;53.954;9.506;2022-09-16T12:12:27;33.20;;;3.25;;
29314;SDS011;16320;53.954;9.506;2022-09-16T12:15:39;21.75;;;2.13;;
29314;SDS011;16320;53.954;9.506;2022-09-16T12:18:57;28.70;;;3.22;;
29314;SDS011;16320;53.954;9.506;2022-09-16T12:22:22;28.27;;;2.95;;
29314;SDS011;16320;53.954;9.506;2022-09-16T12:25:38;18.30;;;1.48;;
29314;SDS011;16320;53.954;9.506;2022-09-16T12:28:51;17.38;;;2.15;;
29314;SDS011;16320;53.954;9.506;2022-09-16T12:32:14;16.48;;;1.50;;
29314;SDS011;16320;53.954;9.506;2022-09-16T12:35:35;15.80;;;1.90;;
29314;SDS011;16320;53.954;9.506;2022-09-16T12:38:46;28.63;;;2.47;;
29314;SDS011;16320;53.954;9.506;2022-09-16T12:42:05;21.55;;;2.35;;
29314;SDS011;16320;53.954;9.506;2022-09-16T12:59:55;27.83;;;2.83;;
29314;SDS011;16320;53.954;9.506;2022-09-16T13:03:18;23.48;;;2.97;;
29314;SDS011;16320;53.954;9.506;2022-09-16T13:06:28;23.95;;;3.13;;
29314;SDS011;16320;53.954;9.506;2022-09-16T13:09:37;27.65;;;2.92;;
29314;SDS011;16320;53.954;9.506;2022-09-16T13:12:50;26.73;;;2.50;;
29314;SDS011;16320;53.954;9.506;2022-09-16T13:15:58;24.30;;;2.33;;
29314;SDS011;16320;53.954;9.506;2022-09-16T13:19:21;33.75;;;2.88;;
29314;SDS011;16320;53.954;9.506;2022-09-16T13:22:35;35.15;;;2.38;;
29314;SDS011;16320;53.954;9.506;2022-09-16T13:28:59;29.60;;;2.83;;
29314;SDS011;16320;53.954;9.506;2022-09-16T13:32:03;24.92;;;2.47;;
29314;SDS011;16320;53.954;9.506;2022-09-16T13:38:22;33.75;;;2.78;;
29314;SDS011;16320;53.954;9.506;2022-09-16T13:41:43;23.88;;;2.35;;
29314;SDS011;16320;53.954;9.506;2022-09-16T13:44:50;29.90;;;3.10;;
29314;SDS011;16320;53.954;9.506;2022-09-16T13:47:55;37.10;;;3.28;;
29314;SDS011;16320;53.954;9.506;2022-09-16T13:51:00;19.50;;;2.08;;
29314;SDS011;16320;53.954;9.506;2022-09-16T13:54:18;31.92;;;2.72;;
29314;SDS011;16320;53.954;9.506;2022-09-16T13:57:43;33.60;;;2.53;;
29314;SDS011;16320;53.954;9.506;2022-09-16T14:01:12;32.83;;;3.33;;
29314;SDS011;16320;53.954;9.506;2022-09-16T14:05:08;16.10;;;2.97;;
29314;SDS011;16320;53.954;9.506;2022-09-16T14:08:37;34.20;;;2.67;;
29314;SDS011;16320;53.954;9.506;2022-09-16T14:15:55;48.70;;;4.68;;
29314;SDS011;16320;53.954;9.506;2022-09-16T14:22:23;36.60;;;3.83;;
29314;SDS011;16320;53.954;9.506;2022-09-16T14:25:34;27.88;;;3.53;;
29314;SDS011;16320;53.954;9.506;2022-09-16T14:28:39;40.65;;;3.70;;
29314;SDS011;16320;53.954;9.506;2022-09-16T14:31:43;30.98;;;4.32;;
29314;SDS011;16320;53.954;9.506;2022-09-16T14:34:48;32.58;;;5.75;;
29314;SDS011;16320;53.954;9.506;2022-09-16T14:37:59;42.97;;;3.75;;
29314;SDS011;16320;53.954;9.506;2022-09-16T14:41:17;31.23;;;3.17;;
29314;SDS011;16320;53.954;9.506;2022-09-16T14:48:07;47.15;;;5.00;;
29314;SDS011;16320;53.954;9.506;2022-09-16T14:51:19;38.83;;;6.60;;
29314;SDS011;16320;53.954;9.506;2022-09-16T14:54:29;42.83;;;6.88;;
29314;SDS011;16320;53.954;9.506;2022-09-16T14:57:34;33.13;;;5.68;;
29314;SDS011;16320;53.954;9.506;2022-09-16T15:00:44;24.60;;;4.80;;
29314;SDS011;16320;53.954;9.506;2022-09-16T15:03:52;32.78;;;6.30;;
29314;SDS011;16320;53.954;9.506;2022-09-16T15:07:07;35.42;;;8.15;;
29314;SDS011;16320;53.954;9.506;2022-09-16T15:10:19;33.83;;;6.30;;
29314;SDS011;16320;53.954;9.506;2022-09-16T15:13:29;32.97;;;4.88;;
29314;SDS011;16320;53.954;9.506;2022-09-16T15:16:47;32.75;;;5.80;;
29314;SDS011;16320;53.954;9.506;2022-09-16T15:19:56;29.42;;;5.05;;
29314;SDS011;16320;53.954;9.506;2022-09-16T15:23:02;37.42;;;5.20;;
29314;SDS011;16320;53.954;9.506;2022-09-16T15:29:33;36.08;;;5.20;;
29314;SDS011;16320;53.954;9.506;2022-09-16T15:32:49;33.42;;;4.78;;
29314;SDS011;16320;53.954;9.506;2022-09-16T15:35:54;29.17;;;5.25;;
29314;SDS011;16320;53.954;9.506;2022-09-16T15:38:58;29.60;;;4.30;;
29314;SDS011;16320;53.954;9.506;2022-09-16T15:42:16;20.33;;;3.40;;
29314;SDS011;16320;53.954;9.506;2022-09-16T15:45:22;26.10;;;4.03;;
29314;SDS011;16320;53.954;9.506;2022-09-16T15:48:31;25.35;;;4.10;;
29314;SDS011;16320;53.954;9.506;2022-09-16T15:51:46;25.17;;;3.72;;
29314;SDS011;16320;53.954;9.506;2022-09-16T15:54:56;25.52;;;4.20;;
29314;SDS011;16320;53.954;9.506;2022-09-16T16:04:33;20.88;;;2.95;;
29314;SDS011;16320;53.954;9.506;2022-09-16T16:07:40;25.08;;;4.05;;
29314;SDS011;16320;53.954;9.506;2022-09-16T16:11:10;32.03;;;5.20;;
29314;SDS011;16320;53.954;9.506;2022-09-16T16:14:24;31.40;;;4.00;;
29314;SDS011;16320;53.954;9.506;2022-09-16T16:17:35;23.40;;;3.60;;
29314;SDS011;16320;53.954;9.506;2022-09-16T16:20:40;21.90;;;3.88;;
29314;SDS011;16320;53.954;9.506;2022-09-16T16:23:44;27.35;;;4.18;;
29314;SDS011;16320;53.954;9.506;2022-09-16T16:26:49;25.60;;;3.83;;
29314;SDS011;16320;53.954;9.506;2022-09-16T16:29:59;25.98;;;4.45;;
29314;SDS011;16320;53.954;9.506;2022-09-16T16:33:05;25.25;;;3.65;;
29314;SDS011;16320;53.954;9.506;2022-09-16T16:36:16;22.48;;;4.15;;
29314;SDS011;16320;53.954;9.506;2022-09-16T16:39:22;30.45;;;4.05;;
29314;SDS011;16320;53.954;9.506;2022-09-16T16:42:27;25.15;;;3.85;;
29314;SDS011;16320;53.954;9.506;2022-09-16T16:45:32;26.48;;;3.70;;
29314;SDS011;16320;53.954;9.506;2022-09-16T16:48:37;24.15;;;3.92;;
29314;SDS011;16320;53.954;9.506;2022-09-16T16:51:42;19.83;;;3.70;;
29314;SDS011;16320;53.954;9.506;2022-09-16T16:54:46;20.58;;;3.05;;
29314;SDS011;16320;53.954;9.506;2022-09-16T16:57:50;17.33;;;3.30;;
29314;SDS011;16320;53.954;9.506;2022-09-16T17:00:55;26.38;;;3.45;;
29314;SDS011;16320;53.954;9.506;2022-09-16T17:04:16;16.27;;;2.83;;
29314;SDS011;16320;53.954;9.506;2022-09-16T17:07:21;27.02;;;3.55;;
29314;SDS011;16320;53.954;9.506;2022-09-16T17:10:30;30.58;;;3.60;;
29314;SDS011;16320;53.954;9.506;2022-09-16T17:13:36;15.88;;;2.90;;
29314;SDS011;16320;53.954;9.506;2022-09-16T17:16:41;25.25;;;3.72;;
29314;SDS011;16320;53.954;9.506;2022-09-16T17:19:50;20.77;;;2.63;;
29314;SDS011;16320;53.954;9.506;2022-09-16T17:22:54;23.95;;;2.70;;
29314;SDS011;16320;53.954;9.506;2022-09-16T17:25:59;24.25;;;3.22;;
29314;SDS011;16320;53.954;9.506;2022-09-16T17:29:04;28.92;;;3.03;;
29314;SDS011;16320;53.954;9.506;2022-09-16T17:32:18;18.30;;;2.35;;
29314;SDS011;16320;53.954;9.506;2022-09-16T17:35:22;21.52;;;2.78;;
29314;SDS011;16320;53.954;9.506;2022-09-16T17:38:26;34.20;;;2.80;;
29314;SDS011;16320;53.954;9.506;2022-09-16T17:41:32;22.38;;;2.85;;
29314;SDS011;16320;53.954;9.506;2022-09-16T17:44:38;22.35;;;2.35;;
29314;SDS011;16320;53.954;9.506;2022-09-16T17:47:42;27.48;;;3.33;;
29314;SDS011;16320;53.954;9.506;2022-09-16T17:50:50;23.45;;;3.22;;
29314;SDS011;16320;53.954;9.506;2022-09-16T17:53:54;25.80;;;3.00;;
29314;SDS011;16320;53.954;9.506;2022-09-16T17:56:59;26.25;;;3.15;;
29314;SDS011;16320;53.954;9.506;2022-09-16T18:00:04;20.77;;;3.03;;
29314;SDS011;16320;53.954;9.506;2022-09-16T18:03:10;25.48;;;3.00;;
29314;SDS011;16320;53.954;9.506;2022-09-16T18:06:17;20.45;;;2.17;;
29314;SDS011;16320;53.954;9.506;2022-09-16T18:09:30;23.77;;;3.10;;
29314;SDS011;16320;53.954;9.506;2022-09-16T18:12:36;32.80;;;4.53;;
29314;SDS011;16320;53.954;9.506;2022-09-16T18:15:40;22.33;;;2.85;;
29314;SDS011;16320;53.954;9.506;2022-09-16T18:18:48;17.33;;;4.03;;
29314;SDS011;16320;53.954;9.506;2022-09-16T18:21:54;23.52;;;4.00;;
29314;SDS011;16320;53.954;9.506;2022-09-16T18:24:59;18.83;;;2.67;;
29314;SDS011;16320;53.954;9.506;2022-09-16T18:28:04;23.17;;;3.78;;
29314;SDS011;16320;53.954;9.506;2022-09-16T18:31:09;33.65;;;3.30;;
29314;SDS011;16320;53.954;9.506;2022-09-16T18:34:17;18.02;;;2.72;;
29314;SDS011;16320;53.954;9.506;2022-09-16T18:37:21;15.60;;;2.72;;
29314;SDS011;16320;53.954;9.506;2022-09-16T18:40:26;19.17;;;3.35;;
29314;SDS011;16320;53.954;9.506;2022-09-16T18:43:31;16.83;;;2.88;;
29314;SDS011;16320;53.954;9.506;2022-09-16T18:46:36;16.88;;;4.50;;
29314;SDS011;16320;53.954;9.506;2022-09-16T18:49:41;19.88;;;3.60;;
29314;SDS011;16320;53.954;9.506;2022-09-16T18:55:53;16.17;;;3.03;;
29314;SDS011;16320;53.954;9.506;2022-09-16T18:58:59;21.67;;;3.75;;
29314;SDS011;16320;53.954;9.506;2022-09-16T19:02:27;27.75;;;3.13;;
29314;SDS011;16320;53.954;9.506;2022-09-16T19:05:31;17.92;;;3.72;;
29314;SDS011;16320;53.954;9.506;2022-09-16T19:08:36;21.63;;;3.97;;
29314;SDS011;16320;53.954;9.506;2022-09-16T19:11:40;15.00;;;3.63;;
29314;SDS011;16320;53.954;9.506;2022-09-16T19:14:45;14.60;;;3.88;;
29314;SDS011;16320;53.954;9.506;2022-09-16T19:17:49;19.25;;;3.05;;
29314;SDS011;16320;53.954;9.506;2022-09-16T19:20:55;22.85;;;2.97;;
29314;SDS011;16320;53.954;9.506;2022-09-16T19:24:00;17.05;;;2.92;;
29314;SDS011;16320;53.954;9.506;2022-09-16T19:27:09;18.67;;;2.42;;
29314;SDS011;16320;53.954;9.506;2022-09-16T19:30:13;27.85;;;3.67;;
29314;SDS011;16320;53.954;9.506;2022-09-16T19:33:17;20.38;;;2.63;;
29314;SDS011;16320;53.954;9.506;2022-09-16T19:36:22;22.40;;;3.13;;
29314;SDS011;16320;53.954;9.506;2022-09-16T19:39:33;24.38;;;4.10;;
29314;SDS011;16320;53.954;9.506;2022-09-16T19:42:39;21.35;;;2.85;;
29314;SDS011;16320;53.954;9.506;2022-09-16T19:45:44;22.65;;;3.45;;
29314;SDS011;16320;53.954;9.506;2022-09-16T19:48:49;19.23;;;3.97;;
29314;SDS011;16320;53.954;9.506;2022-09-16T19:51:53;17.65;;;2.35;;
29314;SDS011;16320;53.954;9.506;2022-09-16T19:54:58;22.20;;;3.95;;
29314;SDS011;16320;53.954;9.506;2022-09-16T19:58:02;22.27;;;3.33;;
29314;SDS011;16320;53.954;9.506;2022-09-16T20:01:08;29.42;;;3.28;;
29314;SDS011;16320;53.954;9.506;2022-09-16T20:04:15;14.90;;;2.28;;
29314;SDS011;16320;53.954;9.506;2022-09-16T20:07:24;17.15;;;2.67;;
29314;SDS011;16320;53.954;9.506;2022-09-16T20:10:28;21.23;;;2.92;;
29314;SDS011;16320;53.954;9.506;2022-09-16T20:13:33;22.70;;;3.55;;
29314;SDS011;16320;53.954;9.506;2022-09-16T20:16:38;16.08;;;2.53;;
29314;SDS011;16320;53.954;9.506;2022-09-16T20:19:43;16.05;;;2.40;;
29314;SDS011;16320;53.954;9.506;2022-09-16T20:22:47;14.05;;;2.20;;
29314;SDS011;16320;53.954;9.506;2022-09-16T20:25:53;19.00;;;2.40;;
29314;SDS011;16320;53.954;9.506;2022-09-16T20:28:59;18.48;;;3.03;;
29314;SDS011;16320;53.954;9.506;2022-09-16T20:32:05;20.67;;;2.70;;
29314;SDS011;16320;53.954;9.506;2022-09-16T20:35:10;14.73;;;2.42;;
29314;SDS011;16320;53.954;9.506;2022-09-16T20:38:15;22.05;;;3.10;;
29314;SDS011;16320;53.954;9.506;2022-09-16T20:41:24;20.30;;;3.05;;
29314;SDS011;16320;53.954;9.506;2022-09-16T20:44:30;25.35;;;3.58;;
29314;SDS011;16320;53.954;9.506;2022-09-16T20:50:39;22.05;;;3.70;;
29314;SDS011;16320;53.954;9.506;2022-09-16T20:53:43;37.30;;;3.92;;
29314;SDS011;16320;53.954;9.506;2022-09-16T20:57:00;17.25;;;3.63;;
29314;SDS011;16320;53.954;9.506;2022-09-16T21:00:04;25.85;;;4.75;;
29314;SDS011;16320;53.954;9.506;2022-09-16T21:03:10;23.23;;;2.72;;
29314;SDS011;16320;53.954;9.506;2022-09-16T21:06:15;19.23;;;2.95;;
29314;SDS011;16320;53.954;9.506;2022-09-16T21:09:19;21.88;;;2.67;;
29314;SDS011;16320;53.954;9.506;2022-09-16T21:12:23;30.38;;;3.53;;
29314;SDS011;16320;53.954;9.506;2022-09-16T21:15:28;28.70;;;4.50;;
29314;SDS011;16320;53.954;9.506;2022-09-16T21:18:33;27.20;;;3.45;;
29314;SDS011;16320;53.954;9.506;2022-09-16T21:21:39;32.47;;;4.05;;
29314;SDS011;16320;53.954;9.506;2022-09-16T21:24:47;22.85;;;3.10;;
29314;SDS011;16320;53.954;9.506;2022-09-16T21:27:52;23.65;;;2.88;;
29314;SDS011;16320;53.954;9.506;2022-09-16T21:30:57;26.35;;;4.43;;
29314;SDS011;16320;53.954;9.506;2022-09-16T21:34:04;29.77;;;4.15;;
29314;SDS011;16320;53.954;9.506;2022-09-16T21:37:10;23.83;;;2.92;;
29314;SDS011;16320;53.954;9.506;2022-09-16T21:40:14;34.90;;;4.38;;
29314;SDS011;16320;53.954;9.506;2022-09-16T21:43:18;30.17;;;4.30;;
29314;SDS011;16320;53.954;9.506;2022-09-16T21:46:24;22.70;;;2.80;;
29314;SDS011;16320;53.954;9.506;2022-09-16T21:49:31;22.95;;;4.32;;
29314;SDS011;16320;53.954;9.506;2022-09-16T21:52:35;24.38;;;3.65;;